This is the latest recevied weather packets stored in our database for station/object WX7FGZ-3. If no packets are shown the sender has not sent any weather packets the latest 10 day(s).
| Time | Temp. | Humidity | Pressure | Rain* | Wind** | Luminosity | Snow |
|---|---|---|---|---|---|---|---|
| 1777853006 | 18.89° C | 25% | 1007.7 hPa | 0 mm | - | - | - |
| 1777852706 | 19.44° C | 25% | 1007.6 hPa | 0 mm | - | - | - |
| 1777852405 | 19.44° C | 23% | 1007.7 hPa | 0 mm | - | - | - |
| 1777852105 | 20° C | 22% | 1007.6 hPa | 0 mm | - | - | - |
| 1777851805 | 19.44° C | 22% | 1007.5 hPa | 0 mm | - | - | - |
| 1777851505 | 19.44° C | 21% | 1007.7 hPa | 0 mm | - | - | - |
| 1777850304 | 18.89° C | 22% | 1007.7 hPa | 0 mm | - | - | - |
| 1777850003 | 18.89° C | 21% | 1007.5 hPa | 0 mm | - | - | - |
| 1777849402 | 19.44° C | 20% | 1007.8 hPa | 0 mm | - | - | - |
| 1777849102 | 19.44° C | 20% | 1007.9 hPa | 0 mm | - | - | - |
| 1777848802 | 19.44° C | 19% | 1008 hPa | 0 mm | - | - | - |
| 1777848501 | 20° C | 19% | 1007.9 hPa | 0 mm | - | - | - |
| 1777847901 | 20° C | 19% | 1008.3 hPa | 0 mm | - | - | - |
| 1777846099 | 21.11° C | 21% | 1008.7 hPa | 0 mm | - | - | - |
| 1777846002 | 21.67° C | 21% | 1010.8 hPa | 0 mm | - | - | - |
| 1777845980 | 20.56° C | 23% | 1011.1 hPa | 0 mm | - | - | - |
| 1777845499 | 21.11° C | 19% | 1008.8 hPa | 0 mm | - | - | - |
| 1777843997 | 21.67° C | 20% | 1009.6 hPa | 0 mm | - | - | - |
| 1777843097 | 20.56° C | 20% | 1010 hPa | 0 mm | - | - | - |
| 1777842796 | 20.56° C | 20% | 1010.1 hPa | 0 mm | - | - | - |
| 1777841595 | 22.22° C | 19% | 1010.6 hPa | 0 mm | - | - | - |
| 1777840694 | 21.67° C | 21% | 1010.7 hPa | 0 mm | - | - | - |
| 1777840394 | 21.67° C | 21% | 1010.8 hPa | 0 mm | - | - | - |
| 1777839793 | 20.56° C | 23% | 1011.1 hPa | 0 mm | - | - | - |
| 1777839603 | 19.44° C | 24% | 1011.1 hPa | 0 mm | - | - | - |
* Rain latest hour (hover to see other rain measurements)
** Current wind speed in m/s (hover to see current wind gust speed)